Details From TNCA - Reina Beatrix Intl
To TNCC - Curacao Hato
Flight Number -
Tags Decoded
Created
Modified
Stats Distance 103 nm / 190 km
Max Altitude 0 ft / 0 m
Waypoints 5
Social Downloads 3
Likes 0
Share VATSIM

Download

Looking for another format? Having issues loading an existing format? Contact us
Advertisement - Login to hide

Notes

Decoded

Route

TNCA NOREX ABA ALCOT TNCC

ID Type Via Altitude Latitude Longitude Leg Dist Tot Dist Heading (true) Name
O TNCA APT - 0 ft / 0 m 12.50439˚ -70.02747˚ - 0 nm - -
NOREX FIX - 0 ft / 0 m 12.31167˚ -70.06167˚ 11 nm 11 nm 190° / 190° -
ABA VOR - 0 ft / 0 m 12.50567˚ -69.94311˚ 13 nm 25 nm 31° / 31° ARUBA VOR-DME
ALCOT FIX - 0 ft / 0 m 11.91167˚ -69.26000˚ 53 nm 78 nm 132° / 132° -
O TNCC APT - 0 ft / 0 m 12.19211˚ -68.97514˚ 23 nm 102 nm 45° / 45° -

Altitude Profile

Advertisement - Login to hide

TNCA

Details ICAO TNCA (AUA)
Name REINA BEATRIX INTL
Region Caribbean Netherlands, Aruba, Curaçao, Sint Maarten
Timezone America/Aruba (UTC-4.0)
Stats Elevation 60 ft / 18 m (AMSL)
Location 12.501389° -70.015220°
Runways 1
Magnetic Variation 10.771° W

METAR

TNCA 171700Z 09021KT 9999 SCT022 30/24 Q1013 A2992 NOSIG

Decode

TAF

Not found

Departure Runways

ID Width Length Bearing (true) Bearing (mag) Surface Threshold Offset Overrun Length
11 148 ft / 45 m 8,998 ft / 2,743 m 104.08° 114.85° Asphalt 0 ft / 0 m 184 ft / 56 m
29 148 ft / 45 m 8,998 ft / 2,743 m 284.09° 294.86° Asphalt 0 ft / 0 m 184 ft / 56 m

TNCC

Details ICAO TNCC (CUR)
Name Curacao Hato
Region Caribbean Netherlands, Aruba, Curaçao, Sint Maarten
Timezone Unknown (UTC+0.0)
Stats Elevation 29 ft / 9 m (AMSL)
Location 12.188853° -68.959803°
Runways 1
Magnetic Variation 11.332° W

METAR

TNCC 171700Z 08011KT 9999 SCT022 30/23 Q1014 NOSIG

Decode

TAF

Not found

Destination Runways

ID Width Length Bearing (true) Bearing (mag) Surface Threshold Offset Overrun Length
11 197 ft / 60 m 11,197 ft / 3,413 m 102.24° 113.57° Asphalt 300 ft / 91 m 0 ft / 0 m
29 197 ft / 60 m 11,197 ft / 3,413 m 282.24° 293.57° Asphalt 300 ft / 91 m 200 ft / 61 m

Approach Navaids

Runway Type Ident Frequency Range Bearing (true) Bearing (mag) Slope Elevation
11 Localiser IATO 111.90 MHz 18 nm / 33 km 102.23° 113.56° - 29 ft / 9 m (AMSL)
11 Glidescope IATO 111.90 MHz 10 nm / 19 km 102.24° 113.57° 3.00° 29 ft / 9 m (AMSL)
11 DME IATO 111.90 MHz 18 nm / 33 km - - - 29 ft / 9 m (AMSL)

Popular Alternatives